sensor_id;sensor_type;location;lat;lon;timestamp;temperature;humidity
10678;DHT22;5387;48.722;9.110;2022-10-14T00:00:40;12.10;99.90
10678;DHT22;5387;48.722;9.110;2022-10-14T00:03:07;12.10;99.90
10678;DHT22;5387;48.722;9.110;2022-10-14T00:05:38;12.10;99.90
10678;DHT22;5387;48.722;9.110;2022-10-14T00:08:05;12.10;99.90
10678;DHT22;5387;48.722;9.110;2022-10-14T00:10:31;12.10;99.90
10678;DHT22;5387;48.722;9.110;2022-10-14T00:13:01;12.10;99.90
10678;DHT22;5387;48.722;9.110;2022-10-14T00:15:30;12.10;99.90
10678;DHT22;5387;48.722;9.110;2022-10-14T00:17:56;12.10;99.90
10678;DHT22;5387;48.722;9.110;2022-10-14T00:20:23;12.10;99.90
10678;DHT22;5387;48.722;9.110;2022-10-14T00:22:50;12.10;99.90
10678;DHT22;5387;48.722;9.110;2022-10-14T00:25:17;12.10;99.90
10678;DHT22;5387;48.722;9.110;2022-10-14T00:27:43;12.00;99.90
10678;DHT22;5387;48.722;9.110;2022-10-14T00:30:11;12.00;99.90
10678;DHT22;5387;48.722;9.110;2022-10-14T00:32:39;12.10;99.90
10678;DHT22;5387;48.722;9.110;2022-10-14T00:35:06;12.10;99.90
10678;DHT22;5387;48.722;9.110;2022-10-14T00:37:33;12.10;99.90
10678;DHT22;5387;48.722;9.110;2022-10-14T00:40:00;12.20;99.90
10678;DHT22;5387;48.722;9.110;2022-10-14T00:42:31;12.20;99.90
10678;DHT22;5387;48.722;9.110;2022-10-14T00:45:01;12.20;99.90
10678;DHT22;5387;48.722;9.110;2022-10-14T00:47:29;12.20;99.90
10678;DHT22;5387;48.722;9.110;2022-10-14T00:49:58;12.10;99.90
10678;DHT22;5387;48.722;9.110;2022-10-14T00:52:26;12.10;99.90
10678;DHT22;5387;48.722;9.110;2022-10-14T00:54:55;12.10;99.90
10678;DHT22;5387;48.722;9.110;2022-10-14T00:57:25;12.10;99.90
10678;DHT22;5387;48.722;9.110;2022-10-14T00:59:57;12.10;99.90
10678;DHT22;5387;48.722;9.110;2022-10-14T01:02:25;12.10;99.90
10678;DHT22;5387;48.722;9.110;2022-10-14T01:04:52;12.00;99.90
10678;DHT22;5387;48.722;9.110;2022-10-14T01:07:28;12.10;99.90
10678;DHT22;5387;48.722;9.110;2022-10-14T01:10:03;12.10;99.90
10678;DHT22;5387;48.722;9.110;2022-10-14T01:12:38;12.10;99.90
10678;DHT22;5387;48.722;9.110;2022-10-14T01:15:16;12.10;99.90
10678;DHT22;5387;48.722;9.110;2022-10-14T01:17:52;12.20;99.90
10678;DHT22;5387;48.722;9.110;2022-10-14T01:20:45;12.10;99.90
10678;DHT22;5387;48.722;9.110;2022-10-14T01:23:45;12.20;99.90
10678;DHT22;5387;48.722;9.110;2022-10-14T01:29:58;12.30;99.90
10678;DHT22;5387;48.722;9.110;2022-10-14T01:32:27;12.30;99.90
10678;DHT22;5387;48.722;9.110;2022-10-14T01:35:02;12.50;99.90
10678;DHT22;5387;48.722;9.110;2022-10-14T01:37:34;12.30;99.90
10678;DHT22;5387;48.722;9.110;2022-10-14T01:40:07;12.40;99.90
10678;DHT22;5387;48.722;9.110;2022-10-14T01:42:38;12.40;99.90
10678;DHT22;5387;48.722;9.110;2022-10-14T01:45:13;12.50;99.90
10678;DHT22;5387;48.722;9.110;2022-10-14T01:47:40;12.40;99.90
10678;DHT22;5387;48.722;9.110;2022-10-14T01:50:09;12.50;99.90
10678;DHT22;5387;48.722;9.110;2022-10-14T01:52:43;12.60;99.90
10678;DHT22;5387;48.722;9.110;2022-10-14T01:55:16;12.60;99.90
10678;DHT22;5387;48.722;9.110;2022-10-14T01:57:44;12.60;99.90
10678;DHT22;5387;48.722;9.110;2022-10-14T02:00:14;12.60;99.90
10678;DHT22;5387;48.722;9.110;2022-10-14T02:02:41;12.50;99.90
10678;DHT22;5387;48.722;9.110;2022-10-14T02:05:16;12.40;99.90
10678;DHT22;5387;48.722;9.110;2022-10-14T02:07:47;12.40;99.90
10678;DHT22;5387;48.722;9.110;2022-10-14T02:10:22;12.60;99.90
10678;DHT22;5387;48.722;9.110;2022-10-14T02:13:03;12.70;99.90
10678;DHT22;5387;48.722;9.110;2022-10-14T02:15:40;12.50;99.90
10678;DHT22;5387;48.722;9.110;2022-10-14T02:18:13;12.40;99.90
10678;DHT22;5387;48.722;9.110;2022-10-14T02:20:47;12.60;99.90
10678;DHT22;5387;48.722;9.110;2022-10-14T02:23:19;12.70;99.90
10678;DHT22;5387;48.722;9.110;2022-10-14T02:25:48;12.90;99.90
10678;DHT22;5387;48.722;9.110;2022-10-14T02:28:17;12.90;99.90
10678;DHT22;5387;48.722;9.110;2022-10-14T02:30:49;13.00;99.90
10678;DHT22;5387;48.722;9.110;2022-10-14T02:33:18;13.00;99.90
10678;DHT22;5387;48.722;9.110;2022-10-14T02:35:47;13.20;99.90
10678;DHT22;5387;48.722;9.110;2022-10-14T02:38:15;13.10;99.90
10678;DHT22;5387;48.722;9.110;2022-10-14T02:40:45;13.20;99.90
10678;DHT22;5387;48.722;9.110;2022-10-14T02:43:13;12.90;99.90
10678;DHT22;5387;48.722;9.110;2022-10-14T02:45:41;12.80;99.90
10678;DHT22;5387;48.722;9.110;2022-10-14T02:48:10;12.70;99.90
10678;DHT22;5387;48.722;9.110;2022-10-14T02:50:37;12.90;99.90
10678;DHT22;5387;48.722;9.110;2022-10-14T02:53:04;12.70;99.90
10678;DHT22;5387;48.722;9.110;2022-10-14T02:55:31;12.60;99.90
10678;DHT22;5387;48.722;9.110;2022-10-14T02:57:58;12.70;99.90
10678;DHT22;5387;48.722;9.110;2022-10-14T03:00:25;12.70;99.90
10678;DHT22;5387;48.722;9.110;2022-10-14T03:02:52;12.70;99.90
10678;DHT22;5387;48.722;9.110;2022-10-14T03:05:20;12.80;99.90
10678;DHT22;5387;48.722;9.110;2022-10-14T03:07:47;12.70;99.90
10678;DHT22;5387;48.722;9.110;2022-10-14T03:10:14;12.70;99.90
10678;DHT22;5387;48.722;9.110;2022-10-14T03:12:41;12.60;99.90
10678;DHT22;5387;48.722;9.110;2022-10-14T03:15:09;12.50;99.90
10678;DHT22;5387;48.722;9.110;2022-10-14T03:17:36;12.50;99.90
10678;DHT22;5387;48.722;9.110;2022-10-14T03:20:03;12.50;99.90
10678;DHT22;5387;48.722;9.110;2022-10-14T03:22:32;12.50;99.90
10678;DHT22;5387;48.722;9.110;2022-10-14T03:24:58;12.60;99.90
10678;DHT22;5387;48.722;9.110;2022-10-14T03:27:25;12.60;99.90
10678;DHT22;5387;48.722;9.110;2022-10-14T03:29:52;12.70;99.90
10678;DHT22;5387;48.722;9.110;2022-10-14T03:32:19;12.70;99.90
10678;DHT22;5387;48.722;9.110;2022-10-14T03:34:45;12.60;99.90
10678;DHT22;5387;48.722;9.110;2022-10-14T03:37:12;12.70;99.90
10678;DHT22;5387;48.722;9.110;2022-10-14T03:39:40;12.80;99.90
10678;DHT22;5387;48.722;9.110;2022-10-14T03:42:07;12.60;99.90
10678;DHT22;5387;48.722;9.110;2022-10-14T03:44:34;12.60;99.90
10678;DHT22;5387;48.722;9.110;2022-10-14T03:47:01;12.50;99.90
10678;DHT22;5387;48.722;9.110;2022-10-14T03:49:27;12.70;99.90
10678;DHT22;5387;48.722;9.110;2022-10-14T03:51:54;12.50;99.90
10678;DHT22;5387;48.722;9.110;2022-10-14T03:54:21;12.60;99.90
10678;DHT22;5387;48.722;9.110;2022-10-14T03:56:49;12.50;99.90
10678;DHT22;5387;48.722;9.110;2022-10-14T03:59:16;12.50;99.90
10678;DHT22;5387;48.722;9.110;2022-10-14T04:01:43;12.30;99.90
10678;DHT22;5387;48.722;9.110;2022-10-14T04:04:10;12.30;99.90
10678;DHT22;5387;48.722;9.110;2022-10-14T04:06:36;12.20;99.90
10678;DHT22;5387;48.722;9.110;2022-10-14T04:09:03;12.20;99.90
10678;DHT22;5387;48.722;9.110;2022-10-14T04:11:30;12.20;99.90
10678;DHT22;5387;48.722;9.110;2022-10-14T04:13:58;12.20;99.90
10678;DHT22;5387;48.722;9.110;2022-10-14T04:16:26;12.10;99.90
10678;DHT22;5387;48.722;9.110;2022-10-14T04:18:53;12.20;99.90
10678;DHT22;5387;48.722;9.110;2022-10-14T04:21:20;12.20;99.90
10678;DHT22;5387;48.722;9.110;2022-10-14T04:23:46;12.10;99.90
10678;DHT22;5387;48.722;9.110;2022-10-14T04:26:13;12.10;99.90
10678;DHT22;5387;48.722;9.110;2022-10-14T04:28:40;12.20;99.90
10678;DHT22;5387;48.722;9.110;2022-10-14T04:31:08;12.20;99.90
10678;DHT22;5387;48.722;9.110;2022-10-14T04:33:35;12.20;99.90
10678;DHT22;5387;48.722;9.110;2022-10-14T04:36:04;12.30;99.90
10678;DHT22;5387;48.722;9.110;2022-10-14T04:38:31;12.30;99.90
10678;DHT22;5387;48.722;9.110;2022-10-14T04:40:58;12.50;99.90
10678;DHT22;5387;48.722;9.110;2022-10-14T04:43:25;12.60;99.90
10678;DHT22;5387;48.722;9.110;2022-10-14T04:45:52;12.50;99.90
10678;DHT22;5387;48.722;9.110;2022-10-14T04:48:20;12.60;99.90
10678;DHT22;5387;48.722;9.110;2022-10-14T04:50:49;12.40;99.90
10678;DHT22;5387;48.722;9.110;2022-10-14T04:53:16;12.60;99.90
10678;DHT22;5387;48.722;9.110;2022-10-14T04:55:43;12.60;99.90
10678;DHT22;5387;48.722;9.110;2022-10-14T04:58:10;12.50;99.90
10678;DHT22;5387;48.722;9.110;2022-10-14T05:00:37;12.50;99.90
10678;DHT22;5387;48.722;9.110;2022-10-14T05:03:04;12.50;99.90
10678;DHT22;5387;48.722;9.110;2022-10-14T05:05:32;12.50;99.90
10678;DHT22;5387;48.722;9.110;2022-10-14T05:07:59;12.50;99.90
10678;DHT22;5387;48.722;9.110;2022-10-14T05:10:26;12.50;99.90
10678;DHT22;5387;48.722;9.110;2022-10-14T05:12:53;12.40;99.90
10678;DHT22;5387;48.722;9.110;2022-10-14T05:15:20;12.40;99.90
10678;DHT22;5387;48.722;9.110;2022-10-14T05:17:47;12.30;99.90
10678;DHT22;5387;48.722;9.110;2022-10-14T05:20:14;12.30;99.90
10678;DHT22;5387;48.722;9.110;2022-10-14T05:22:42;12.30;99.90
10678;DHT22;5387;48.722;9.110;2022-10-14T05:25:10;12.40;99.90
10678;DHT22;5387;48.722;9.110;2022-10-14T05:27:36;12.20;99.90
10678;DHT22;5387;48.722;9.110;2022-10-14T05:30:04;12.30;99.90
10678;DHT22;5387;48.722;9.110;2022-10-14T05:32:31;12.20;99.90
10678;DHT22;5387;48.722;9.110;2022-10-14T05:34:57;12.20;99.90
10678;DHT22;5387;48.722;9.110;2022-10-14T05:37:24;12.30;99.90
10678;DHT22;5387;48.722;9.110;2022-10-14T05:39:52;12.30;99.90
10678;DHT22;5387;48.722;9.110;2022-10-14T05:42:19;12.30;99.90
10678;DHT22;5387;48.722;9.110;2022-10-14T05:44:46;12.30;99.90
10678;DHT22;5387;48.722;9.110;2022-10-14T05:47:13;12.40;99.90
10678;DHT22;5387;48.722;9.110;2022-10-14T05:49:40;12.40;99.90
10678;DHT22;5387;48.722;9.110;2022-10-14T05:52:07;12.40;99.90
10678;DHT22;5387;48.722;9.110;2022-10-14T05:54:34;12.50;99.90
10678;DHT22;5387;48.722;9.110;2022-10-14T05:57:02;12.50;99.90
10678;DHT22;5387;48.722;9.110;2022-10-14T05:59:28;12.40;99.90
10678;DHT22;5387;48.722;9.110;2022-10-14T06:01:57;12.60;99.90
10678;DHT22;5387;48.722;9.110;2022-10-14T06:04:24;12.50;99.90
10678;DHT22;5387;48.722;9.110;2022-10-14T06:06:51;12.60;99.90
10678;DHT22;5387;48.722;9.110;2022-10-14T06:09:18;12.60;99.90
10678;DHT22;5387;48.722;9.110;2022-10-14T06:11:45;12.70;99.90
10678;DHT22;5387;48.722;9.110;2022-10-14T06:14:14;12.70;99.90
10678;DHT22;5387;48.722;9.110;2022-10-14T06:16:40;12.70;99.90
10678;DHT22;5387;48.722;9.110;2022-10-14T06:19:07;12.70;99.90
10678;DHT22;5387;48.722;9.110;2022-10-14T06:21:34;12.60;99.90
10678;DHT22;5387;48.722;9.110;2022-10-14T06:24:01;12.80;99.90
10678;DHT22;5387;48.722;9.110;2022-10-14T06:26:27;12.70;99.90
10678;DHT22;5387;48.722;9.110;2022-10-14T06:28:54;12.70;99.90
10678;DHT22;5387;48.722;9.110;2022-10-14T06:31:22;12.70;99.90
10678;DHT22;5387;48.722;9.110;2022-10-14T06:33:49;12.70;99.90
10678;DHT22;5387;48.722;9.110;2022-10-14T06:36:16;12.70;99.90
10678;DHT22;5387;48.722;9.110;2022-10-14T06:38:43;12.70;99.90
10678;DHT22;5387;48.722;9.110;2022-10-14T06:41:10;12.70;99.90
10678;DHT22;5387;48.722;9.110;2022-10-14T06:43:37;12.70;99.90
10678;DHT22;5387;48.722;9.110;2022-10-14T06:46:04;12.60;99.90
10678;DHT22;5387;48.722;9.110;2022-10-14T06:48:32;12.50;99.90
10678;DHT22;5387;48.722;9.110;2022-10-14T06:51:00;12.60;99.90
10678;DHT22;5387;48.722;9.110;2022-10-14T06:53:27;12.60;99.90
10678;DHT22;5387;48.722;9.110;2022-10-14T06:55:58;12.70;99.90
10678;DHT22;5387;48.722;9.110;2022-10-14T06:58:25;12.80;99.90
10678;DHT22;5387;48.722;9.110;2022-10-14T07:00:52;12.80;99.90
10678;DHT22;5387;48.722;9.110;2022-10-14T07:03:19;12.90;99.90
10678;DHT22;5387;48.722;9.110;2022-10-14T07:05:47;13.00;99.90
10678;DHT22;5387;48.722;9.110;2022-10-14T07:08:13;13.00;99.90
10678;DHT22;5387;48.722;9.110;2022-10-14T07:10:40;13.10;99.90
10678;DHT22;5387;48.722;9.110;2022-10-14T07:13:07;13.10;99.90
10678;DHT22;5387;48.722;9.110;2022-10-14T07:15:36;13.00;99.90
10678;DHT22;5387;48.722;9.110;2022-10-14T07:18:03;12.80;99.90
10678;DHT22;5387;48.722;9.110;2022-10-14T07:20:30;12.80;99.90
10678;DHT22;5387;48.722;9.110;2022-10-14T07:22:58;12.90;99.90
10678;DHT22;5387;48.722;9.110;2022-10-14T07:25:25;13.20;99.90
10678;DHT22;5387;48.722;9.110;2022-10-14T07:27:52;13.40;99.90
10678;DHT22;5387;48.722;9.110;2022-10-14T07:30:18;13.60;99.90
10678;DHT22;5387;48.722;9.110;2022-10-14T07:32:45;13.80;99.90
10678;DHT22;5387;48.722;9.110;2022-10-14T07:35:12;13.90;99.90
10678;DHT22;5387;48.722;9.110;2022-10-14T07:37:39;14.00;99.90
10678;DHT22;5387;48.722;9.110;2022-10-14T07:40:08;13.80;99.90
10678;DHT22;5387;48.722;9.110;2022-10-14T07:42:35;13.70;99.90
10678;DHT22;5387;48.722;9.110;2022-10-14T07:45:03;13.50;99.90
10678;DHT22;5387;48.722;9.110;2022-10-14T07:47:30;13.50;99.90
10678;DHT22;5387;48.722;9.110;2022-10-14T07:49:58;13.50;99.90
10678;DHT22;5387;48.722;9.110;2022-10-14T07:52:25;13.90;99.90
10678;DHT22;5387;48.722;9.110;2022-10-14T07:54:52;14.00;99.90
10678;DHT22;5387;48.722;9.110;2022-10-14T07:57:20;13.90;99.90
10678;DHT22;5387;48.722;9.110;2022-10-14T07:59:47;13.90;99.90
10678;DHT22;5387;48.722;9.110;2022-10-14T08:02:16;14.00;99.90
10678;DHT22;5387;48.722;9.110;2022-10-14T08:04:43;13.90;99.90
10678;DHT22;5387;48.722;9.110;2022-10-14T08:07:10;14.30;99.90
10678;DHT22;5387;48.722;9.110;2022-10-14T08:09:38;14.20;99.90
10678;DHT22;5387;48.722;9.110;2022-10-14T08:12:06;14.20;99.90
10678;DHT22;5387;48.722;9.110;2022-10-14T08:14:34;14.20;99.90
10678;DHT22;5387;48.722;9.110;2022-10-14T08:17:01;14.40;99.90
10678;DHT22;5387;48.722;9.110;2022-10-14T08:19:28;14.50;99.90
10678;DHT22;5387;48.722;9.110;2022-10-14T08:21:54;14.50;99.90
10678;DHT22;5387;48.722;9.110;2022-10-14T08:24:21;14.50;99.90
10678;DHT22;5387;48.722;9.110;2022-10-14T08:26:49;14.60;99.90
10678;DHT22;5387;48.722;9.110;2022-10-14T08:29:16;14.50;99.90
10678;DHT22;5387;48.722;9.110;2022-10-14T08:31:45;14.70;99.90
10678;DHT22;5387;48.722;9.110;2022-10-14T08:34:12;14.60;99.90
10678;DHT22;5387;48.722;9.110;2022-10-14T08:36:39;14.80;99.90
10678;DHT22;5387;48.722;9.110;2022-10-14T08:39:06;15.10;99.90
10678;DHT22;5387;48.722;9.110;2022-10-14T08:41:48;15.20;99.90
10678;DHT22;5387;48.722;9.110;2022-10-14T08:44:22;15.20;99.90
10678;DHT22;5387;48.722;9.110;2022-10-14T08:46:54;15.30;99.90
10678;DHT22;5387;48.722;9.110;2022-10-14T08:49:26;15.10;99.90
10678;DHT22;5387;48.722;9.110;2022-10-14T08:51:57;15.00;99.90
10678;DHT22;5387;48.722;9.110;2022-10-14T08:54:31;14.80;99.90
10678;DHT22;5387;48.722;9.110;2022-10-14T08:57:00;14.50;99.90
10678;DHT22;5387;48.722;9.110;2022-10-14T08:59:27;14.60;99.90
10678;DHT22;5387;48.722;9.110;2022-10-14T09:01:59;14.50;99.90
10678;DHT22;5387;48.722;9.110;2022-10-14T09:04:27;14.40;99.90
10678;DHT22;5387;48.722;9.110;2022-10-14T09:06:54;14.40;99.90
10678;DHT22;5387;48.722;9.110;2022-10-14T09:09:25;14.80;99.90
10678;DHT22;5387;48.722;9.110;2022-10-14T09:11:55;14.60;99.90
10678;DHT22;5387;48.722;9.110;2022-10-14T09:14:25;14.90;99.90
10678;DHT22;5387;48.722;9.110;2022-10-14T09:16:59;15.00;99.90
10678;DHT22;5387;48.722;9.110;2022-10-14T09:19:31;15.20;99.90
10678;DHT22;5387;48.722;9.110;2022-10-14T09:21:59;15.30;99.90
10678;DHT22;5387;48.722;9.110;2022-10-14T09:24:28;15.40;99.90
10678;DHT22;5387;48.722;9.110;2022-10-14T09:26:59;15.40;99.90
10678;DHT22;5387;48.722;9.110;2022-10-14T09:29:30;15.60;99.90
10678;DHT22;5387;48.722;9.110;2022-10-14T09:32:02;15.50;99.90
10678;DHT22;5387;48.722;9.110;2022-10-14T09:34:32;15.70;99.90
10678;DHT22;5387;48.722;9.110;2022-10-14T09:37:11;15.90;99.90
10678;DHT22;5387;48.722;9.110;2022-10-14T09:39:42;16.00;99.90
10678;DHT22;5387;48.722;9.110;2022-10-14T09:42:14;16.30;99.90
10678;DHT22;5387;48.722;9.110;2022-10-14T09:44:42;16.40;99.90
10678;DHT22;5387;48.722;9.110;2022-10-14T09:47:12;16.50;99.90
10678;DHT22;5387;48.722;9.110;2022-10-14T09:49:45;16.40;99.90
10678;DHT22;5387;48.722;9.110;2022-10-14T09:52:20;16.50;99.90
10678;DHT22;5387;48.722;9.110;2022-10-14T09:54:52;16.80;99.90
10678;DHT22;5387;48.722;9.110;2022-10-14T09:57:20;17.20;99.90
10678;DHT22;5387;48.722;9.110;2022-10-14T09:59:50;17.20;99.90
10678;DHT22;5387;48.722;9.110;2022-10-14T10:02:24;17.30;99.90
10678;DHT22;5387;48.722;9.110;2022-10-14T10:04:51;17.10;99.90
10678;DHT22;5387;48.722;9.110;2022-10-14T10:07:27;17.10;99.90
10678;DHT22;5387;48.722;9.110;2022-10-14T10:09:55;17.00;99.90
10678;DHT22;5387;48.722;9.110;2022-10-14T10:12:24;16.60;99.90
10678;DHT22;5387;48.722;9.110;2022-10-14T10:14:59;16.40;99.90
10678;DHT22;5387;48.722;9.110;2022-10-14T10:17:31;16.60;99.90
10678;DHT22;5387;48.722;9.110;2022-10-14T10:20:14;16.50;99.90
10678;DHT22;5387;48.722;9.110;2022-10-14T10:22:43;16.80;99.90
10678;DHT22;5387;48.722;9.110;2022-10-14T10:25:22;17.10;99.90
10678;DHT22;5387;48.722;9.110;2022-10-14T10:27:55;17.20;99.90
10678;DHT22;5387;48.722;9.110;2022-10-14T10:30:24;16.70;99.90
10678;DHT22;5387;48.722;9.110;2022-10-14T10:33:21;16.60;99.90
10678;DHT22;5387;48.722;9.110;2022-10-14T10:36:11;16.50;99.90
10678;DHT22;5387;48.722;9.110;2022-10-14T10:38:50;16.40;99.90
10678;DHT22;5387;48.722;9.110;2022-10-14T10:41:30;16.30;99.90
10678;DHT22;5387;48.722;9.110;2022-10-14T10:44:19;16.40;99.90
10678;DHT22;5387;48.722;9.110;2022-10-14T10:47:03;16.60;99.90
10678;DHT22;5387;48.722;9.110;2022-10-14T10:49:49;16.70;99.90
10678;DHT22;5387;48.722;9.110;2022-10-14T10:52:25;16.60;99.90
10678;DHT22;5387;48.722;9.110;2022-10-14T10:55:00;16.80;99.90
10678;DHT22;5387;48.722;9.110;2022-10-14T10:57:40;16.60;99.90
10678;DHT22;5387;48.722;9.110;2022-10-14T11:00:11;16.40;99.90
10678;DHT22;5387;48.722;9.110;2022-10-14T11:02:53;16.60;99.90
10678;DHT22;5387;48.722;9.110;2022-10-14T11:05:35;16.40;99.90
10678;DHT22;5387;48.722;9.110;2022-10-14T11:08:16;16.20;99.90
10678;DHT22;5387;48.722;9.110;2022-10-14T11:11:13;16.00;99.90
10678;DHT22;5387;48.722;9.110;2022-10-14T11:14:12;15.90;99.90
10678;DHT22;5387;48.722;9.110;2022-10-14T11:16:46;15.80;99.90
10678;DHT22;5387;48.722;9.110;2022-10-14T11:19:20;15.60;99.90
10678;DHT22;5387;48.722;9.110;2022-10-14T11:21:59;15.40;99.90
10678;DHT22;5387;48.722;9.110;2022-10-14T11:24:35;15.60;99.90
10678;DHT22;5387;48.722;9.110;2022-10-14T11:27:08;15.80;99.90
10678;DHT22;5387;48.722;9.110;2022-10-14T11:29:45;15.90;99.90
10678;DHT22;5387;48.722;9.110;2022-10-14T11:32:20;15.70;99.90
10678;DHT22;5387;48.722;9.110;2022-10-14T11:35:00;15.70;99.90
10678;DHT22;5387;48.722;9.110;2022-10-14T11:37:38;15.70;99.90
10678;DHT22;5387;48.722;9.110;2022-10-14T11:40:14;15.90;99.90
10678;DHT22;5387;48.722;9.110;2022-10-14T11:42:54;16.20;99.90
10678;DHT22;5387;48.722;9.110;2022-10-14T11:45:40;16.50;99.90
10678;DHT22;5387;48.722;9.110;2022-10-14T11:48:21;16.60;99.90
10678;DHT22;5387;48.722;9.110;2022-10-14T11:50:52;16.40;99.90
10678;DHT22;5387;48.722;9.110;2022-10-14T11:53:26;16.30;99.90
10678;DHT22;5387;48.722;9.110;2022-10-14T11:56:02;16.60;99.90
10678;DHT22;5387;48.722;9.110;2022-10-14T11:58:32;16.60;99.90
10678;DHT22;5387;48.722;9.110;2022-10-14T12:01:11;16.70;99.90
10678;DHT22;5387;48.722;9.110;2022-10-14T12:03:46;16.60;99.90
10678;DHT22;5387;48.722;9.110;2022-10-14T12:06:18;16.50;99.90
10678;DHT22;5387;48.722;9.110;2022-10-14T12:08:53;16.50;99.90
10678;DHT22;5387;48.722;9.110;2022-10-14T12:11:27;16.70;99.90
10678;DHT22;5387;48.722;9.110;2022-10-14T12:14:02;16.80;99.90
10678;DHT22;5387;48.722;9.110;2022-10-14T12:16:30;16.80;99.90
10678;DHT22;5387;48.722;9.110;2022-10-14T12:18:58;16.70;99.90
10678;DHT22;5387;48.722;9.110;2022-10-14T12:21:30;17.10;99.90
10678;DHT22;5387;48.722;9.110;2022-10-14T12:24:02;17.10;99.90
10678;DHT22;5387;48.722;9.110;2022-10-14T12:26:49;17.20;99.90
10678;DHT22;5387;48.722;9.110;2022-10-14T12:29:18;16.90;99.90
10678;DHT22;5387;48.722;9.110;2022-10-14T12:32:04;16.80;99.90
10678;DHT22;5387;48.722;9.110;2022-10-14T12:34:34;16.70;99.90
10678;DHT22;5387;48.722;9.110;2022-10-14T12:40:28;16.70;99.90
10678;DHT22;5387;48.722;9.110;2022-10-14T12:43:14;17.00;99.90
10678;DHT22;5387;48.722;9.110;2022-10-14T12:45:59;17.30;99.90
10678;DHT22;5387;48.722;9.110;2022-10-14T12:48:30;17.20;99.90
10678;DHT22;5387;48.722;9.110;2022-10-14T12:51:07;17.30;99.90
10678;DHT22;5387;48.722;9.110;2022-10-14T12:53:36;17.30;99.90
10678;DHT22;5387;48.722;9.110;2022-10-14T12:56:05;17.10;99.90
10678;DHT22;5387;48.722;9.110;2022-10-14T12:58:35;17.10;99.90
10678;DHT22;5387;48.722;9.110;2022-10-14T13:01:05;16.90;99.90
10678;DHT22;5387;48.722;9.110;2022-10-14T13:03:38;17.10;99.90
10678;DHT22;5387;48.722;9.110;2022-10-14T13:06:30;17.30;99.90
10678;DHT22;5387;48.722;9.110;2022-10-14T13:12:40;17.10;99.90
10678;DHT22;5387;48.722;9.110;2022-10-14T13:18:49;17.20;99.90
10678;DHT22;5387;48.722;9.110;2022-10-14T13:21:29;17.20;99.90
10678;DHT22;5387;48.722;9.110;2022-10-14T13:23:58;17.20;99.90
10678;DHT22;5387;48.722;9.110;2022-10-14T13:26:34;17.20;99.90
10678;DHT22;5387;48.722;9.110;2022-10-14T13:29:14;17.00;99.90
10678;DHT22;5387;48.722;9.110;2022-10-14T13:31:48;16.90;99.90
10678;DHT22;5387;48.722;9.110;2022-10-14T13:34:30;16.90;99.90
10678;DHT22;5387;48.722;9.110;2022-10-14T13:37:18;16.90;99.90
10678;DHT22;5387;48.722;9.110;2022-10-14T13:39:49;16.90;99.90
10678;DHT22;5387;48.722;9.110;2022-10-14T13:42:21;16.70;99.90
10678;DHT22;5387;48.722;9.110;2022-10-14T13:44:51;16.60;99.90
10678;DHT22;5387;48.722;9.110;2022-10-14T13:47:20;16.70;99.90
10678;DHT22;5387;48.722;9.110;2022-10-14T13:49:49;16.80;99.90
10678;DHT22;5387;48.722;9.110;2022-10-14T13:52:20;16.90;99.90
10678;DHT22;5387;48.722;9.110;2022-10-14T13:54:48;16.70;99.90
10678;DHT22;5387;48.722;9.110;2022-10-14T13:57:16;16.70;99.90
10678;DHT22;5387;48.722;9.110;2022-10-14T13:59:44;16.50;99.90
10678;DHT22;5387;48.722;9.110;2022-10-14T14:02:15;16.40;99.90
10678;DHT22;5387;48.722;9.110;2022-10-14T14:04:47;16.40;99.90
10678;DHT22;5387;48.722;9.110;2022-10-14T14:07:18;16.30;99.90
10678;DHT22;5387;48.722;9.110;2022-10-14T14:09:47;16.40;99.90
10678;DHT22;5387;48.722;9.110;2022-10-14T14:12:16;16.50;99.90
10678;DHT22;5387;48.722;9.110;2022-10-14T14:14:43;16.60;99.90
10678;DHT22;5387;48.722;9.110;2022-10-14T14:17:15;16.60;99.90
10678;DHT22;5387;48.722;9.110;2022-10-14T14:19:45;16.50;99.90
10678;DHT22;5387;48.722;9.110;2022-10-14T14:22:17;16.60;99.90
10678;DHT22;5387;48.722;9.110;2022-10-14T14:24:44;16.50;99.90
10678;DHT22;5387;48.722;9.110;2022-10-14T14:27:13;16.50;99.90
10678;DHT22;5387;48.722;9.110;2022-10-14T14:29:42;16.50;99.90
10678;DHT22;5387;48.722;9.110;2022-10-14T14:32:15;16.40;99.90
10678;DHT22;5387;48.722;9.110;2022-10-14T14:34:45;16.60;99.90
10678;DHT22;5387;48.722;9.110;2022-10-14T14:37:19;16.50;99.90
10678;DHT22;5387;48.722;9.110;2022-10-14T14:39:56;16.60;99.90
10678;DHT22;5387;48.722;9.110;2022-10-14T14:42:23;16.70;99.90
10678;DHT22;5387;48.722;9.110;2022-10-14T14:44:53;16.70;99.90
10678;DHT22;5387;48.722;9.110;2022-10-14T14:47:21;16.70;99.90
10678;DHT22;5387;48.722;9.110;2022-10-14T14:49:50;16.60;99.90
10678;DHT22;5387;48.722;9.110;2022-10-14T14:52:18;16.40;99.90
10678;DHT22;5387;48.722;9.110;2022-10-14T14:54:46;16.50;99.90
10678;DHT22;5387;48.722;9.110;2022-10-14T14:57:15;16.40;99.90
10678;DHT22;5387;48.722;9.110;2022-10-14T14:59:49;16.30;99.90
10678;DHT22;5387;48.722;9.110;2022-10-14T15:02:19;16.20;99.90
10678;DHT22;5387;48.722;9.110;2022-10-14T15:04:59;16.10;99.90
10678;DHT22;5387;48.722;9.110;2022-10-14T15:07:26;16.10;99.90
10678;DHT22;5387;48.722;9.110;2022-10-14T15:09:54;16.00;99.90
10678;DHT22;5387;48.722;9.110;2022-10-14T15:12:24;15.70;99.90
10678;DHT22;5387;48.722;9.110;2022-10-14T15:14:53;15.50;99.90
10678;DHT22;5387;48.722;9.110;2022-10-14T15:17:26;15.40;99.90
10678;DHT22;5387;48.722;9.110;2022-10-14T15:19:55;15.30;99.90
10678;DHT22;5387;48.722;9.110;2022-10-14T15:22:29;15.30;99.90
10678;DHT22;5387;48.722;9.110;2022-10-14T15:24:58;15.30;99.90
10678;DHT22;5387;48.722;9.110;2022-10-14T15:27:39;15.30;99.90
10678;DHT22;5387;48.722;9.110;2022-10-14T15:30:24;15.20;99.90
10678;DHT22;5387;48.722;9.110;2022-10-14T15:32:55;15.20;99.90
10678;DHT22;5387;48.722;9.110;2022-10-14T15:35:25;15.10;99.90
10678;DHT22;5387;48.722;9.110;2022-10-14T15:37:52;15.10;99.90
10678;DHT22;5387;48.722;9.110;2022-10-14T15:40:21;15.00;99.90
10678;DHT22;5387;48.722;9.110;2022-10-14T15:42:49;15.00;99.90
10678;DHT22;5387;48.722;9.110;2022-10-14T15:45:16;14.80;99.90
10678;DHT22;5387;48.722;9.110;2022-10-14T15:47:43;14.90;99.90
10678;DHT22;5387;48.722;9.110;2022-10-14T15:50:15;14.60;99.90
10678;DHT22;5387;48.722;9.110;2022-10-14T15:52:43;14.60;99.90
10678;DHT22;5387;48.722;9.110;2022-10-14T15:55:15;14.60;99.90
10678;DHT22;5387;48.722;9.110;2022-10-14T15:57:44;14.50;99.90
10678;DHT22;5387;48.722;9.110;2022-10-14T16:00:12;14.50;99.90
10678;DHT22;5387;48.722;9.110;2022-10-14T16:02:39;14.40;99.90
10678;DHT22;5387;48.722;9.110;2022-10-14T16:05:08;14.30;99.90
10678;DHT22;5387;48.722;9.110;2022-10-14T16:07:35;14.30;99.90
10678;DHT22;5387;48.722;9.110;2022-10-14T16:10:06;14.40;99.90
10678;DHT22;5387;48.722;9.110;2022-10-14T16:12:33;14.30;99.90
10678;DHT22;5387;48.722;9.110;2022-10-14T16:15:00;14.30;99.90
10678;DHT22;5387;48.722;9.110;2022-10-14T16:17:27;14.20;99.90
10678;DHT22;5387;48.722;9.110;2022-10-14T16:19:54;14.30;99.90